Time;durP1;ratioP1;P1;durP2;ratioP2;P2;SDS_P1;SDS_P2;PMS_P1;PMS_P2;Temp;Humidity;BMP_temperature;BMP_pressure;BME280_temperature;BME280_humidity;BME280_pressure;Samples;Min_cycle;Max_cycle;Signal;HPM_P1;HPM_P2
2022/06/10 00:00:14;;;;;;;2.50;1.83;;;;;;;;;;4390664;32;20608;-82
2022/06/10 00:02:43;;;;;;;3.53;1.80;;;;;;;;;;4390566;32;20624;-82
2022/06/10 00:05:18;;;;;;;2.87;1.70;;;;;;;;;;4390510;32;20611;-83
2022/06/10 00:07:44;;;;;;;6.70;2.05;;;;;;;;;;4390947;32;20652;-82
2022/06/10 00:10:12;;;;;;;3.75;2.85;;;;;;;;;;4389923;32;20603;-82
2022/06/10 00:12:38;;;;;;;3.92;1.83;;;;;;;;;;4390323;32;20685;-80
2022/06/10 00:15:05;;;;;;;3.53;2.00;;;;;;;;;;4390520;32;20194;-84
2022/06/10 00:17:31;;;;;;;3.37;1.80;;;;;;;;;;4391072;32;20545;-85
2022/06/10 00:19:57;;;;;;;2.65;2.35;;;;;;;;;;4390553;32;20228;-82
2022/06/10 00:22:23;;;;;;;5.32;2.45;;;;;;;;;;4389971;32;20240;-81
2022/06/10 00:24:51;;;;;;;4.12;2.53;;;;;;;;;;4389997;32;20194;-82
2022/06/10 00:27:19;;;;;;;10.35;2.33;;;;;;;;;;4389954;32;20742;-82
2022/06/10 00:29:47;;;;;;;4.95;2.40;;;;;;;;;;4388817;32;20607;-82
2022/06/10 00:32:14;;;;;;;6.62;2.58;;;;;;;;;;4388833;32;20555;-84
2022/06/10 00:34:39;;;;;;;4.28;2.83;;;;;;;;;;4390879;32;20569;-83
2022/06/10 00:37:07;;;;;;;2.92;2.50;;;;;;;;;;4390646;32;20237;-85
2022/06/10 00:39:34;;;;;;;3.62;2.70;;;;;;;;;;4390184;32;20677;-82
2022/06/10 00:42:01;;;;;;;3.20;2.30;;;;;;;;;;4388918;32;20570;-82
2022/06/10 00:44:30;;;;;;;4.05;2.47;;;;;;;;;;4389732;32;20637;-82
2022/06/10 00:46:57;;;;;;;6.78;2.37;;;;;;;;;;4388776;32;20636;-82
2022/06/10 00:49:23;;;;;;;3.10;2.00;;;;;;;;;;4390034;32;20685;-82
2022/06/10 00:51:54;;;;;;;2.17;1.90;;;;;;;;;;4389721;32;20261;-83
2022/06/10 00:54:26;;;;;;;3.78;2.12;;;;;;;;;;4389781;32;20680;-83
2022/06/10 00:57:19;;;;;;;8.05;3.03;;;;;;;;;;4390093;32;20277;-82
2022/06/10 00:59:52;;;;;;;2.53;1.75;;;;;;;;;;4389973;32;20631;-81
2022/06/10 01:02:22;;;;;;;6.30;2.37;;;;;;;;;;4389986;32;20544;-82
2022/06/10 01:04:48;;;;;;;2.72;2.00;;;;;;;;;;4390358;32;20517;-85
2022/06/10 01:07:18;;;;;;;2.42;2.15;;;;;;;;;;4390208;32;20528;-82
2022/06/10 01:09:46;;;;;;;4.50;2.35;;;;;;;;;;4390401;32;20583;-82
2022/06/10 01:12:22;;;;;;;3.20;1.92;;;;;;;;;;4389657;32;20536;-81
2022/06/10 01:14:54;;;;;;;14.02;2.45;;;;;;;;;;4389747;32;20583;-82
2022/06/10 01:17:35;;;;;;;6.75;1.83;;;;;;;;;;4389233;32;20619;-82
2022/06/10 01:20:18;;;;;;;4.80;2.08;;;;;;;;;;4388927;32;20599;-82
2022/06/10 01:23:18;;;;;;;3.60;2.15;;;;;;;;;;4389240;32;20240;-82
2022/06/10 01:26:14;;;;;;;4.15;1.98;;;;;;;;;;4389448;32;20637;-83
2022/06/10 01:29:14;;;;;;;2.83;1.73;;;;;;;;;;4389324;32;20556;-83
2022/06/10 01:32:02;;;;;;;5.30;2.40;;;;;;;;;;4388732;32;20594;-82
2022/06/10 01:35:11;;;;;;;2.03;1.80;;;;;;;;;;4391067;32;20565;-82
2022/06/10 01:38:22;;;;;;;7.72;2.15;;;;;;;;;;4389590;32;20642;-81
2022/06/10 01:41:00;;;;;;;4.07;2.35;;;;;;;;;;4390468;32;20592;-82
2022/06/10 01:43:44;;;;;;;2.75;2.10;;;;;;;;;;4396219;32;20202;-81
2022/06/10 01:46:20;;;;;;;3.35;1.80;;;;;;;;;;4401494;32;20221;-83
2022/06/10 01:48:50;;;;;;;2.85;2.28;;;;;;;;;;4405238;32;20190;-81
2022/06/10 01:52:08;;;;;;;6.22;2.22;;;;;;;;;;4404453;32;20282;-82
2022/06/10 01:54:36;;;;;;;12.30;2.05;;;;;;;;;;4389496;32;20589;-82
2022/06/10 01:57:07;;;;;;;1.77;1.50;;;;;;;;;;4402320;32;20317;-82
2022/06/10 01:59:38;;;;;;;2.50;1.70;;;;;;;;;;4390620;32;20534;-83
2022/06/10 02:02:11;;;;;;;2.55;2.00;;;;;;;;;;4389605;32;20501;-81
2022/06/10 02:04:45;;;;;;;3.62;2.33;;;;;;;;;;4389423;32;20550;-81
2022/06/10 02:07:29;;;;;;;4.37;2.80;;;;;;;;;;4389616;32;20622;-82
2022/06/10 02:10:20;;;;;;;2.97;2.47;;;;;;;;;;4389249;32;20586;-82
2022/06/10 02:12:53;;;;;;;4.35;2.50;;;;;;;;;;4389296;32;20677;-81
2022/06/10 02:15:30;;;;;;;4.20;3.17;;;;;;;;;;4389574;32;20626;-84
2022/06/10 02:18:11;;;;;;;4.25;2.70;;;;;;;;;;4389821;32;20623;-85
2022/06/10 02:20:43;;;;;;;7.53;3.45;;;;;;;;;;4389539;32;20520;-83
2022/06/10 02:23:12;;;;;;;2.90;2.37;;;;;;;;;;4389037;32;20729;-83
2022/06/10 02:25:46;;;;;;;4.50;2.72;;;;;;;;;;4389485;32;20572;-82
2022/06/10 02:28:30;;;;;;;4.25;2.80;;;;;;;;;;4389324;32;20698;-83
2022/06/10 02:31:03;;;;;;;5.22;3.15;;;;;;;;;;4387805;32;20582;-82
2022/06/10 02:33:30;;;;;;;4.25;2.78;;;;;;;;;;4390918;32;20657;-82
2022/06/10 02:36:05;;;;;;;5.35;2.08;;;;;;;;;;4391730;32;20604;-82
2022/06/10 02:39:00;;;;;;;6.15;2.33;;;;;;;;;;4390041;32;20564;-82
2022/06/10 02:41:51;;;;;;;4.18;2.42;;;;;;;;;;4391348;32;20638;-82
2022/06/10 02:44:20;;;;;;;3.50;2.30;;;;;;;;;;4390767;32;20681;-84
2022/06/10 02:47:23;;;;;;;3.85;2.62;;;;;;;;;;4392173;32;20645;-82
2022/06/10 02:49:49;;;;;;;4.07;2.62;;;;;;;;;;4390840;32;20575;-82
2022/06/10 02:52:17;;;;;;;7.37;2.30;;;;;;;;;;4392243;32;20210;-81
2022/06/10 02:54:43;;;;;;;3.35;2.70;;;;;;;;;;4392445;32;20538;-83
2022/06/10 02:57:20;;;;;;;4.03;2.60;;;;;;;;;;4391717;32;20218;-83
2022/06/10 03:03:11;;;;;;;5.15;2.53;;;;;;;;;;4391687;32;20228;-82
2022/06/10 03:06:00;;;;;;;5.12;3.20;;;;;;;;;;4391503;32;20520;-82
2022/06/10 03:08:29;;;;;;;3.60;2.50;;;;;;;;;;4391173;32;20764;-82
2022/06/10 03:11:40;;;;;;;5.82;2.78;;;;;;;;;;4391001;32;20538;-82
2022/06/10 03:14:35;;;;;;;3.92;1.92;;;;;;;;;;4388871;32;20703;-82
2022/06/10 03:17:27;;;;;;;3.80;2.62;;;;;;;;;;4393200;32;20638;-86
2022/06/10 03:20:04;;;;;;;2.58;2.12;;;;;;;;;;4390439;32;20634;-83
2022/06/10 03:22:33;;;;;;;5.45;2.53;;;;;;;;;;4393349;32;20548;-83
2022/06/10 03:25:07;;;;;;;4.18;2.72;;;;;;;;;;4389949;32;20541;-81
2022/06/10 03:27:48;;;;;;;3.20;2.28;;;;;;;;;;4390879;32;20579;-81
2022/06/10 03:30:17;;;;;;;8.77;3.10;;;;;;;;;;4390862;32;20594;-81
2022/06/10 03:32:59;;;;;;;4.55;3.00;;;;;;;;;;4390764;32;20469;-81
2022/06/10 03:35:46;;;;;;;3.90;2.53;;;;;;;;;;4390763;32;20773;-82
2022/06/10 03:38:12;;;;;;;9.20;3.67;;;;;;;;;;4391318;32;20572;-84
2022/06/10 03:40:39;;;;;;;8.55;2.87;;;;;;;;;;4390684;32;20635;-81
2022/06/10 03:43:08;;;;;;;5.82;2.62;;;;;;;;;;4390534;32;20212;-80
2022/06/10 03:45:39;;;;;;;2.90;2.65;;;;;;;;;;4389956;32;20675;-81
2022/06/10 03:48:06;;;;;;;3.67;2.85;;;;;;;;;;4390926;32;20671;-82
2022/06/10 03:50:36;;;;;;;5.22;3.53;;;;;;;;;;4390749;32;20710;-81
2022/06/10 03:53:04;;;;;;;6.07;2.62;;;;;;;;;;4392079;32;20245;-86
2022/06/10 03:55:29;;;;;;;2.67;2.20;;;;;;;;;;4390267;32;20210;-83
2022/06/10 03:57:55;;;;;;;4.12;3.55;;;;;;;;;;4389234;32;20214;-84
2022/06/10 04:00:25;;;;;;;3.65;3.30;;;;;;;;;;4390333;32;20240;-82
2022/06/10 04:02:51;;;;;;;4.00;2.53;;;;;;;;;;4390390;32;20613;-82
2022/06/10 04:05:18;;;;;;;5.80;3.12;;;;;;;;;;4390788;32;20585;-81
2022/06/10 04:07:43;;;;;;;2.90;2.40;;;;;;;;;;4390597;32;20508;-82
2022/06/10 04:10:14;;;;;;;4.97;2.70;;;;;;;;;;4390150;32;20232;-82
2022/06/10 04:12:39;;;;;;;6.62;3.37;;;;;;;;;;4390169;32;20590;-82
2022/06/10 04:15:06;;;;;;;3.17;2.87;;;;;;;;;;4390061;32;20240;-82
2022/06/10 04:17:32;;;;;;;3.67;2.87;;;;;;;;;;4390673;32;20588;-83
2022/06/10 04:19:59;;;;;;;6.10;2.35;;;;;;;;;;4390146;32;20307;-82
2022/06/10 04:22:26;;;;;;;2.55;2.30;;;;;;;;;;4389889;32;20657;-82
2022/06/10 04:24:52;;;;;;;3.83;2.42;;;;;;;;;;4388898;32;20660;-82
2022/06/10 04:27:18;;;;;;;4.00;2.35;;;;;;;;;;4390016;32;20642;-82
2022/06/10 04:29:44;;;;;;;3.80;2.03;;;;;;;;;;4389537;32;20286;-83
2022/06/10 04:32:10;;;;;;;2.72;2.10;;;;;;;;;;4388469;32;20586;-81
2022/06/10 04:34:36;;;;;;;2.90;2.30;;;;;;;;;;4388831;32;20300;-82
2022/06/10 04:37:06;;;;;;;5.12;2.80;;;;;;;;;;4390057;32;20269;-85
2022/06/10 04:39:32;;;;;;;6.05;2.60;;;;;;;;;;4389763;32;20231;-81
2022/06/10 04:41:57;;;;;;;2.50;2.10;;;;;;;;;;4390019;32;20189;-82
2022/06/10 04:44:23;;;;;;;3.87;3.10;;;;;;;;;;4389706;32;20225;-82
2022/06/10 04:46:49;;;;;;;5.60;3.50;;;;;;;;;;4389584;32;20182;-82
2022/06/10 04:49:15;;;;;;;6.82;2.90;;;;;;;;;;4389484;32;20617;-84
2022/06/10 04:51:41;;;;;;;2.78;2.45;;;;;;;;;;4389557;32;20213;-82
2022/06/10 04:54:08;;;;;;;3.72;3.10;;;;;;;;;;4389338;32;20631;-82
2022/06/10 04:56:34;;;;;;;7.00;2.80;;;;;;;;;;4389170;32;20634;-82
2022/06/10 04:59:00;;;;;;;4.43;2.80;;;;;;;;;;4389786;32;20608;-82
2022/06/10 05:01:25;;;;;;;3.65;2.95;;;;;;;;;;4389228;32;20182;-85
2022/06/10 05:03:51;;;;;;;5.37;3.20;;;;;;;;;;4389266;32;20186;-82
2022/06/10 05:06:17;;;;;;;11.00;3.83;;;;;;;;;;4389036;32;20579;-83
2022/06/10 05:08:43;;;;;;;9.23;3.55;;;;;;;;;;4389253;32;20249;-83
2022/06/10 05:11:09;;;;;;;4.25;2.72;;;;;;;;;;4389428;32;20240;-82
2022/06/10 05:13:36;;;;;;;7.37;3.12;;;;;;;;;;4389713;32;20496;-82
2022/06/10 05:16:04;;;;;;;3.15;2.85;;;;;;;;;;4389429;32;20581;-81
2022/06/10 05:18:30;;;;;;;14.90;10.88;;;;;;;;;;4389042;32;20602;-85
2022/06/10 05:20:56;;;;;;;8.88;7.45;;;;;;;;;;4389226;32;20272;-84
2022/06/10 05:23:23;;;;;;;16.87;9.73;;;;;;;;;;4389748;32;20600;-85
2022/06/10 05:25:50;;;;;;;47.08;12.73;;;;;;;;;;4389422;32;20555;-85
2022/06/10 05:28:17;;;;;;;5.32;3.35;;;;;;;;;;4388134;32;20643;-85
2022/06/10 05:30:43;;;;;;;8.70;3.37;;;;;;;;;;4389565;32;20682;-84
2022/06/10 05:33:11;;;;;;;20.98;4.30;;;;;;;;;;4390353;32;20641;-86
2022/06/10 05:35:37;;;;;;;9.77;3.67;;;;;;;;;;4390474;32;20552;-85
2022/06/10 05:38:04;;;;;;;10.15;3.05;;;;;;;;;;4389580;32;20566;-84
2022/06/10 05:40:32;;;;;;;6.30;2.55;;;;;;;;;;4388811;32;20654;-84
2022/06/10 05:42:59;;;;;;;4.80;2.95;;;;;;;;;;4389734;32;20547;-86
2022/06/10 05:45:26;;;;;;;12.80;4.37;;;;;;;;;;4390339;32;20628;-86
2022/06/10 05:47:55;;;;;;;11.18;2.92;;;;;;;;;;4393905;32;20368;-86
2022/06/10 05:50:35;;;;;;;14.15;5.47;;;;;;;;;;4391767;32;20675;-86
2022/06/10 05:53:03;;;;;;;6.03;3.10;;;;;;;;;;4391134;32;20617;-86
2022/06/10 05:55:31;;;;;;;9.10;3.80;;;;;;;;;;4389601;32;20218;-86
2022/06/10 05:57:56;;;;;;;8.60;3.15;;;;;;;;;;4391542;32;20500;-86
2022/06/10 06:00:26;;;;;;;9.13;3.15;;;;;;;;;;4388237;32;20308;-86
2022/06/10 06:02:52;;;;;;;3.10;2.45;;;;;;;;;;4389336;32;20572;-86
2022/06/10 06:05:20;;;;;;;4.93;3.10;;;;;;;;;;4389512;32;20226;-86
2022/06/10 06:07:47;;;;;;;4.47;3.15;;;;;;;;;;4390748;32;20567;-85
2022/06/10 06:10:19;;;;;;;9.90;3.60;;;;;;;;;;4392341;32;20661;-86
2022/06/10 06:12:45;;;;;;;7.50;3.50;;;;;;;;;;4392472;32;20591;-86
2022/06/10 06:15:13;;;;;;;4.20;3.80;;;;;;;;;;4392109;32;20658;-87
2022/06/10 06:17:39;;;;;;;8.15;4.65;;;;;;;;;;4392093;32;20543;-87
2022/06/10 06:20:06;;;;;;;4.75;4.07;;;;;;;;;;4391757;32;20637;-86
2022/06/10 06:22:32;;;;;;;7.97;4.70;;;;;;;;;;4392717;32;20717;-87
2022/06/10 06:24:58;;;;;;;10.95;3.90;;;;;;;;;;4391861;32;20581;-86
2022/06/10 06:27:24;;;;;;;9.45;4.12;;;;;;;;;;4390848;32;20664;-87
2022/06/10 06:29:51;;;;;;;5.62;4.18;;;;;;;;;;4394164;32;20234;-86
2022/06/10 06:32:18;;;;;;;5.75;4.00;;;;;;;;;;4395109;32;20237;-84
2022/06/10 06:34:43;;;;;;;6.82;4.65;;;;;;;;;;4394663;32;20218;-87
2022/06/10 06:37:14;;;;;;;4.95;3.58;;;;;;;;;;4393983;32;20199;-87
2022/06/10 06:39:40;;;;;;;5.32;3.97;;;;;;;;;;4393339;32;20631;-86
2022/06/10 06:42:06;;;;;;;6.70;3.92;;;;;;;;;;4390710;32;20582;-86
2022/06/10 06:44:32;;;;;;;5.37;4.07;;;;;;;;;;4391313;32;20285;-86
2022/06/10 06:46:58;;;;;;;9.65;4.53;;;;;;;;;;4392054;32;20600;-87
2022/06/10 06:49:26;;;;;;;6.45;4.82;;;;;;;;;;4391763;32;20363;-86
2022/06/10 06:51:53;;;;;;;7.62;5.57;;;;;;;;;;4391074;32;20662;-86
2022/06/10 06:54:19;;;;;;;8.77;4.47;;;;;;;;;;4391574;32;20666;-85
2022/06/10 06:56:46;;;;;;;6.65;4.72;;;;;;;;;;4391449;32;20587;-87
2022/06/10 06:59:12;;;;;;;6.28;4.90;;;;;;;;;;4391200;32;20236;-89
2022/06/10 07:01:38;;;;;;;4.90;4.32;;;;;;;;;;4394984;32;20584;-90
2022/06/10 07:04:04;;;;;;;9.55;5.22;;;;;;;;;;4395070;32;20190;-95
2022/06/10 07:06:32;;;;;;;7.53;5.78;;;;;;;;;;4393112;32;20665;-94
2022/06/10 07:08:58;;;;;;;6.20;4.87;;;;;;;;;;4393166;32;20603;-94
2022/06/10 07:11:24;;;;;;;8.85;6.37;;;;;;;;;;4395232;32;20273;-94
2022/06/10 07:13:50;;;;;;;7.12;4.75;;;;;;;;;;4392448;32;20596;-86
2022/06/10 07:16:16;;;;;;;8.85;5.62;;;;;;;;;;4390886;32;20559;-89
2022/06/10 07:18:42;;;;;;;13.90;8.23;;;;;;;;;;4391381;32;20518;-91
2022/06/10 07:21:08;;;;;;;7.95;5.62;;;;;;;;;;4391457;32;20206;-88
2022/06/10 07:23:35;;;;;;;7.55;5.35;;;;;;;;;;4391701;32;20308;-89
2022/06/10 07:26:03;;;;;;;5.32;4.72;;;;;;;;;;4391630;32;20677;-96
2022/06/10 07:28:31;;;;;;;4.95;4.50;;;;;;;;;;4391514;32;20625;-86
2022/06/10 07:30:57;;;;;;;7.28;5.40;;;;;;;;;;4390858;32;20250;-88
2022/06/10 07:33:23;;;;;;;8.20;6.03;;;;;;;;;;4391180;32;20612;-89
2022/06/10 07:35:49;;;;;;;7.78;5.57;;;;;;;;;;4391029;32;20240;-89
2022/06/10 07:38:15;;;;;;;6.22;5.40;;;;;;;;;;4391190;32;20217;-89
2022/06/10 07:43:29;;;;;;;6.30;4.68;;;;;;;;;;4390970;32;20197;-86
2022/06/10 07:45:55;;;;;;;5.03;4.35;;;;;;;;;;4391052;32;20568;-89
2022/06/10 07:48:21;;;;;;;5.10;4.15;;;;;;;;;;4391254;32;20276;-87
2022/06/10 07:50:48;;;;;;;4.25;3.85;;;;;;;;;;4392469;32;20651;-88
2022/06/10 07:53:14;;;;;;;6.15;3.55;;;;;;;;;;4391783;32;20533;-87
2022/06/10 07:55:40;;;;;;;8.07;4.35;;;;;;;;;;4391361;32;20703;-87
2022/06/10 07:58:07;;;;;;;7.10;5.70;;;;;;;;;;4392457;32;20577;-88
2022/06/10 08:00:34;;;;;;;4.20;3.75;;;;;;;;;;4390890;32;20548;-90
2022/06/10 08:03:03;;;;;;;8.40;4.20;;;;;;;;;;4391235;32;20447;-89
2022/06/10 08:05:29;;;;;;;5.93;4.80;;;;;;;;;;4390058;32;20619;-89
2022/06/10 08:07:56;;;;;;;8.52;3.72;;;;;;;;;;4391705;32;20277;-89
2022/06/10 08:10:28;;;;;;;4.30;3.30;;;;;;;;;;4391001;32;20677;-87
2022/06/10 08:12:54;;;;;;;5.87;3.83;;;;;;;;;;4392448;32;20539;-89
2022/06/10 08:15:21;;;;;;;10.32;4.95;;;;;;;;;;4392380;32;20273;-87
2022/06/10 08:17:47;;;;;;;5.30;4.18;;;;;;;;;;4391443;32;20585;-88
2022/06/10 08:20:19;;;;;;;7.15;3.85;;;;;;;;;;4398532;32;20276;-89
2022/06/10 08:22:45;;;;;;;4.50;3.90;;;;;;;;;;4405251;32;20567;-91
2022/06/10 08:25:12;;;;;;;4.65;4.15;;;;;;;;;;4403436;32;20533;-88
2022/06/10 08:27:38;;;;;;;13.25;4.93;;;;;;;;;;4403900;32;20169;-87
2022/06/10 08:30:06;;;;;;;5.93;4.10;;;;;;;;;;4397148;32;20628;-87
2022/06/10 08:32:32;;;;;;;11.82;5.03;;;;;;;;;;4391503;32;20706;-88
2022/06/10 08:34:58;;;;;;;5.93;4.60;;;;;;;;;;4390403;32;20319;-91
2022/06/10 08:37:24;;;;;;;3.90;3.50;;;;;;;;;;4389785;32;20208;-89
2022/06/10 08:39:50;;;;;;;8.32;4.87;;;;;;;;;;4389195;32;20221;-90
2022/06/10 08:42:41;;;;;;;4.50;3.95;;;;;;;;;;4390950;32;20235;-89
2022/06/10 08:45:18;;;;;;;7.68;4.12;;;;;;;;;;4389972;32;20617;-89
2022/06/10 08:48:01;;;;;;;5.03;3.95;;;;;;;;;;4389628;32;20503;-88
2022/06/10 08:50:39;;;;;;;4.20;3.30;;;;;;;;;;4388918;32;20582;-87
2022/06/10 08:53:23;;;;;;;3.78;3.12;;;;;;;;;;4389146;32;20520;-86
2022/06/10 08:56:14;;;;;;;11.02;4.40;;;;;;;;;;4388946;32;20536;-90
2022/06/10 08:59:00;;;;;;;16.80;3.62;;;;;;;;;;4388670;32;20719;-87
2022/06/10 09:01:29;;;;;;;6.40;2.92;;;;;;;;;;4392921;32;20224;-86
2022/06/10 09:04:15;;;;;;;3.87;2.95;;;;;;;;;;4387935;32;20544;-84
2022/06/10 09:06:52;;;;;;;6.30;4.37;;;;;;;;;;4389600;32;20604;-84
2022/06/10 09:09:21;;;;;;;5.68;3.55;;;;;;;;;;4388349;32;20277;-85
2022/06/10 09:12:05;;;;;;;4.07;3.00;;;;;;;;;;4389310;32;20561;-81
2022/06/10 09:14:31;;;;;;;3.47;3.15;;;;;;;;;;4389947;32;20623;-82
2022/06/10 09:17:02;;;;;;;10.02;3.92;;;;;;;;;;4389515;32;20756;-82
2022/06/10 09:20:05;;;;;;;3.75;3.35;;;;;;;;;;4389484;32;20500;-81
2022/06/10 09:22:57;;;;;;;8.15;3.62;;;;;;;;;;4389819;32;20500;-82
2022/06/10 09:25:41;;;;;;;4.15;2.72;;;;;;;;;;4389396;32;20718;-82
2022/06/10 09:28:07;;;;;;;5.60;2.22;;;;;;;;;;4389238;32;20536;-81
2022/06/10 09:30:54;;;;;;;5.80;2.72;;;;;;;;;;4389108;32;20664;-80
2022/06/10 09:33:22;;;;;;;4.20;3.40;;;;;;;;;;4388739;32;20531;-81
2022/06/10 09:35:53;;;;;;;4.37;2.60;;;;;;;;;;4388643;32;20571;-81
2022/06/10 09:38:19;;;;;;;4.22;3.00;;;;;;;;;;4388129;32;20619;-81
2022/06/10 09:41:08;;;;;;;3.12;2.83;;;;;;;;;;4388827;32;20236;-81
2022/06/10 09:43:57;;;;;;;4.95;3.65;;;;;;;;;;4392508;32;20665;-81
2022/06/10 09:46:36;;;;;;;2.70;2.12;;;;;;;;;;4392040;32;20599;-81
2022/06/10 09:49:24;;;;;;;3.35;3.05;;;;;;;;;;4392000;32;20777;-82
2022/06/10 09:52:15;;;;;;;4.62;3.58;;;;;;;;;;4392159;32;20524;-82
2022/06/10 09:54:49;;;;;;;3.92;3.20;;;;;;;;;;4391941;32;20604;-80
2022/06/10 09:57:45;;;;;;;3.22;2.60;;;;;;;;;;4392148;32;20621;-81
2022/06/10 10:00:19;;;;;;;6.45;3.45;;;;;;;;;;4391319;32;20677;-84
2022/06/10 10:02:54;;;;;;;4.80;3.65;;;;;;;;;;4391609;32;20519;-85
2022/06/10 10:05:19;;;;;;;3.78;3.37;;;;;;;;;;4392620;32;20550;-84
2022/06/10 10:07:51;;;;;;;7.05;4.10;;;;;;;;;;4391805;32;20257;-83
2022/06/10 10:10:45;;;;;;;5.05;4.12;;;;;;;;;;4391876;32;20645;-84
2022/06/10 10:13:11;;;;;;;5.07;4.15;;;;;;;;;;4391927;32;20573;-84
2022/06/10 10:15:55;;;;;;;5.03;4.37;;;;;;;;;;4391646;32;20283;-83
2022/06/10 10:18:28;;;;;;;9.13;4.18;;;;;;;;;;4392239;32;20508;-80
2022/06/10 10:21:14;;;;;;;4.62;3.97;;;;;;;;;;4391958;32;20635;-80
2022/06/10 10:23:47;;;;;;;8.85;4.00;;;;;;;;;;4391787;32;20555;-81
2022/06/10 10:26:23;;;;;;;6.57;3.97;;;;;;;;;;4391896;32;20720;-80
2022/06/10 10:29:00;;;;;;;6.37;3.75;;;;;;;;;;4392342;32;20590;-81
2022/06/10 10:31:36;;;;;;;12.18;4.25;;;;;;;;;;4390773;32;20599;-81
2022/06/10 10:34:04;;;;;;;6.97;4.22;;;;;;;;;;4391962;32;20643;-79
2022/06/10 10:36:32;;;;;;;7.18;4.20;;;;;;;;;;4390461;32;20618;-80
2022/06/10 10:39:33;;;;;;;5.50;4.40;;;;;;;;;;4391689;32;20551;-81
2022/06/10 10:42:17;;;;;;;9.45;4.30;;;;;;;;;;4392659;32;20628;-79
2022/06/10 10:44:49;;;;;;;7.35;3.60;;;;;;;;;;4393232;32;20221;-79
2022/06/10 10:47:23;;;;;;;3.97;3.40;;;;;;;;;;4390593;32;20582;-80
2022/06/10 10:50:12;;;;;;;7.37;4.22;;;;;;;;;;4391729;32;20627;-78
2022/06/10 10:52:44;;;;;;;5.97;4.35;;;;;;;;;;4389403;32;20664;-80
2022/06/10 10:55:13;;;;;;;6.07;3.15;;;;;;;;;;4389191;32;20669;-80
2022/06/10 10:57:57;;;;;;;3.95;3.50;;;;;;;;;;4390703;32;20667;-80
2022/06/10 11:00:31;;;;;;;6.93;3.78;;;;;;;;;;4390540;32;20671;-79
2022/06/10 11:03:01;;;;;;;6.43;3.42;;;;;;;;;;4391007;32;20603;-77
2022/06/10 11:05:32;;;;;;;4.57;3.83;;;;;;;;;;4389321;32;20553;-80
2022/06/10 11:08:16;;;;;;;4.15;3.25;;;;;;;;;;4390697;32;20568;-81
2022/06/10 11:11:17;;;;;;;9.02;3.67;;;;;;;;;;4390777;32;20607;-81
2022/06/10 11:13:48;;;;;;;5.68;4.07;;;;;;;;;;4391104;32;20592;-80
2022/06/10 11:16:31;;;;;;;6.70;3.25;;;;;;;;;;4391161;32;20554;-80
2022/06/10 11:19:19;;;;;;;8.35;3.92;;;;;;;;;;4391322;32;20552;-79
2022/06/10 11:22:03;;;;;;;4.28;3.25;;;;;;;;;;4390593;32;20527;-81
2022/06/10 11:24:35;;;;;;;9.93;5.12;;;;;;;;;;4391199;32;20622;-81
2022/06/10 11:30:32;;;;;;;10.88;6.15;;;;;;;;;;4392055;32;20241;-82
2022/06/10 11:33:05;;;;;;;18.85;7.00;;;;;;;;;;4393096;32;20501;-82
2022/06/10 11:35:40;;;;;;;17.75;6.57;;;;;;;;;;4393615;32;20625;-82
2022/06/10 11:38:23;;;;;;;7.10;4.95;;;;;;;;;;4393713;32;20500;-82
2022/06/10 11:40:55;;;;;;;6.22;4.60;;;;;;;;;;4393076;32;20615;-82
2022/06/10 11:43:42;;;;;;;8.00;6.10;;;;;;;;;;4393419;32;20577;-83
2022/06/10 11:46:30;;;;;;;7.78;4.57;;;;;;;;;;4393508;32;20661;-83
2022/06/10 11:49:22;;;;;;;6.97;5.43;;;;;;;;;;4393117;32;20609;-83
2022/06/10 11:52:00;;;;;;;8.63;5.35;;;;;;;;;;4393121;32;20583;-84
2022/06/10 11:54:49;;;;;;;12.40;6.12;;;;;;;;;;4393330;32;20640;-84
2022/06/10 12:00:42;;;;;;;11.02;5.62;;;;;;;;;;4392752;32;20255;-84
2022/06/10 12:03:33;;;;;;;9.98;6.85;;;;;;;;;;4393062;32;20492;-84
2022/06/10 12:06:02;;;;;;;12.77;6.40;;;;;;;;;;4391955;32;20587;-83
2022/06/10 12:08:52;;;;;;;13.00;6.50;;;;;;;;;;4393006;32;20633;-83
2022/06/10 12:11:39;;;;;;;6.60;5.70;;;;;;;;;;4393124;32;20685;-83
2022/06/10 12:14:18;;;;;;;8.18;6.45;;;;;;;;;;4393165;32;20484;-84
2022/06/10 12:16:50;;;;;;;11.65;6.65;;;;;;;;;;4393234;32;20518;-83
2022/06/10 12:19:22;;;;;;;8.63;6.22;;;;;;;;;;4393171;32;20710;-84
2022/06/10 12:21:49;;;;;;;6.35;5.70;;;;;;;;;;4393278;32;20682;-83
2022/06/10 12:24:19;;;;;;;7.05;5.15;;;;;;;;;;4392258;32;20653;-83
2022/06/10 12:27:02;;;;;;;9.75;5.07;;;;;;;;;;4392597;32;20638;-84
2022/06/10 12:29:39;;;;;;;7.47;4.45;;;;;;;;;;4391652;32;20529;-83
2022/06/10 12:32:25;;;;;;;4.30;3.65;;;;;;;;;;4392910;32;20599;-82
2022/06/10 12:35:01;;;;;;;5.22;4.07;;;;;;;;;;4392192;32;20714;-83
2022/06/10 12:37:38;;;;;;;5.35;4.57;;;;;;;;;;4392667;32;20626;-82
2022/06/10 12:40:21;;;;;;;5.82;4.30;;;;;;;;;;4392534;32;20582;-83
2022/06/10 12:42:57;;;;;;;4.03;3.58;;;;;;;;;;4392075;32;20590;-82
2022/06/10 12:45:23;;;;;;;8.50;2.62;;;;;;;;;;4391520;32;20595;-82
2022/06/10 12:47:55;;;;;;;2.78;2.50;;;;;;;;;;4391699;32;20186;-83
2022/06/10 12:50:31;;;;;;;3.53;2.95;;;;;;;;;;4389913;32;20552;-85
2022/06/10 12:53:05;;;;;;;3.75;2.72;;;;;;;;;;4391371;32;20201;-85
2022/06/10 12:55:45;;;;;;;3.50;2.47;;;;;;;;;;4391168;32;20668;-83
2022/06/10 12:58:37;;;;;;;2.50;1.80;;;;;;;;;;4391459;32;20668;-83
2022/06/10 13:01:22;;;;;;;3.45;2.22;;;;;;;;;;4389828;32;20718;-83
2022/06/10 13:03:51;;;;;;;5.53;1.98;;;;;;;;;;4390119;32;20631;-82
2022/06/10 13:06:49;;;;;;;2.65;2.45;;;;;;;;;;4391077;32;20529;-82
2022/06/10 13:09:18;;;;;;;2.60;2.00;;;;;;;;;;4390615;32;20676;-83
2022/06/10 13:11:46;;;;;;;1.83;1.73;;;;;;;;;;4390341;32;20567;-83
2022/06/10 13:14:30;;;;;;;2.03;1.80;;;;;;;;;;4390280;32;20248;-82
2022/06/10 13:16:59;;;;;;;6.10;2.80;;;;;;;;;;4390234;32;20605;-83
2022/06/10 13:19:42;;;;;;;2.55;1.92;;;;;;;;;;4390077;32;20757;-82
2022/06/10 13:22:17;;;;;;;1.95;1.80;;;;;;;;;;4389723;32;20651;-83
2022/06/10 13:24:55;;;;;;;2.60;2.40;;;;;;;;;;4390641;32;20653;-83
2022/06/10 13:27:29;;;;;;;2.05;1.85;;;;;;;;;;4391091;32;20590;-83
2022/06/10 13:30:14;;;;;;;2.53;2.33;;;;;;;;;;4389801;32;20641;-83
2022/06/10 13:32:43;;;;;;;3.45;2.53;;;;;;;;;;4390532;32;20591;-83
2022/06/10 13:35:19;;;;;;;2.85;2.50;;;;;;;;;;4390315;32;20566;-81
2022/06/10 13:37:45;;;;;;;4.45;2.25;;;;;;;;;;4391164;32;20530;-85
2022/06/10 13:40:20;;;;;;;4.35;2.37;;;;;;;;;;4390675;32;20647;-83
2022/06/10 13:42:55;;;;;;;7.20;2.53;;;;;;;;;;4391647;32;20190;-82
2022/06/10 13:45:31;;;;;;;5.57;2.78;;;;;;;;;;4399448;32;20221;-83
2022/06/10 13:48:10;;;;;;;6.82;2.70;;;;;;;;;;4405266;32;20542;-85
2022/06/10 13:53:18;;;;;;;7.70;2.90;;;;;;;;;;4405360;32;20228;-83
2022/06/10 13:55:53;;;;;;;3.67;2.80;;;;;;;;;;4395134;32;20662;-83
2022/06/10 13:58:24;;;;;;;8.45;2.83;;;;;;;;;;4389964;32;20595;-83
2022/06/10 14:01:14;;;;;;;3.65;2.40;;;;;;;;;;4389560;32;20675;-83
2022/06/10 14:04:06;;;;;;;4.37;2.42;;;;;;;;;;4389755;32;20736;-85
2022/06/10 14:06:37;;;;;;;7.22;3.37;;;;;;;;;;4390482;32;20573;-83
2022/06/10 14:09:15;;;;;;;5.30;2.72;;;;;;;;;;4389838;32;20640;-81
2022/06/10 14:11:43;;;;;;;6.68;2.47;;;;;;;;;;4389887;32;20573;-83
2022/06/10 14:14:21;;;;;;;4.00;3.22;;;;;;;;;;4389504;32;20681;-85
2022/06/10 14:16:57;;;;;;;5.28;3.58;;;;;;;;;;4389621;32;20611;-85
2022/06/10 14:19:24;;;;;;;4.70;2.85;;;;;;;;;;4389870;32;20697;-82
2022/06/10 14:21:49;;;;;;;12.32;3.22;;;;;;;;;;4389579;32;20535;-83
2022/06/10 14:24:19;;;;;;;4.22;3.62;;;;;;;;;;4389618;32;20210;-83
2022/06/10 14:26:52;;;;;;;3.78;3.42;;;;;;;;;;4388206;32;20540;-84
2022/06/10 14:29:27;;;;;;;4.82;3.03;;;;;;;;;;4390053;32;20591;-82
2022/06/10 14:32:01;;;;;;;4.53;3.85;;;;;;;;;;4391517;32;20733;-83
2022/06/10 14:34:27;;;;;;;5.25;3.92;;;;;;;;;;4390987;32;20612;-83
2022/06/10 14:36:58;;;;;;;7.85;4.15;;;;;;;;;;4392287;32;20547;-82
2022/06/10 14:39:26;;;;;;;4.68;3.58;;;;;;;;;;4392031;32;20567;-85
2022/06/10 14:42:00;;;;;;;4.15;3.75;;;;;;;;;;4392166;32;20584;-84
2022/06/10 14:44:49;;;;;;;5.53;3.35;;;;;;;;;;4391921;32;20646;-77
2022/06/10 14:47:20;;;;;;;6.78;3.40;;;;;;;;;;4391471;32;20219;-76
2022/06/10 14:50:11;;;;;;;5.53;3.78;;;;;;;;;;4391488;32;20642;-76
2022/06/10 14:52:41;;;;;;;5.37;3.65;;;;;;;;;;4391117;32;20563;-77
2022/06/10 14:55:16;;;;;;;13.27;4.20;;;;;;;;;;4391300;32;20667;-77
2022/06/10 14:57:53;;;;;;;5.28;3.67;;;;;;;;;;4391329;32;20671;-78
2022/06/10 15:00:20;;;;;;;7.20;4.60;;;;;;;;;;4391359;32;20716;-77
2022/06/10 15:02:46;;;;;;;5.45;3.92;;;;;;;;;;4391680;32;20481;-77
2022/06/10 15:08:00;;;;;;;4.45;3.55;;;;;;;;;;4391447;32;20196;-76
2022/06/10 15:10:26;;;;;;;9.27;4.20;;;;;;;;;;4391500;32;20574;-80
2022/06/10 15:12:52;;;;;;;4.57;3.35;;;;;;;;;;4391430;32;20257;-80
2022/06/10 15:15:19;;;;;;;7.30;3.42;;;;;;;;;;4391278;32;20531;-82
2022/06/10 15:17:48;;;;;;;6.70;3.20;;;;;;;;;;4391358;32;20683;-81
2022/06/10 15:20:15;;;;;;;10.25;2.85;;;;;;;;;;4389744;32;20638;-82
2022/06/10 15:22:47;;;;;;;7.28;3.25;;;;;;;;;;4389837;32;20516;-82
2022/06/10 15:25:26;;;;;;;5.20;3.10;;;;;;;;;;4391218;32;20762;-81
2022/06/10 15:27:52;;;;;;;7.28;3.92;;;;;;;;;;4391169;32;20613;-81
2022/06/10 15:30:24;;;;;;;3.80;3.37;;;;;;;;;;4389722;32;20554;-81
2022/06/10 15:32:50;;;;;;;4.72;3.53;;;;;;;;;;4391040;32;20584;-82
2022/06/10 15:41:03;;;;;;;8.57;3.70;;;;;;;;;;4390202;32;20287;-81